Time;durP1;ratioP1;P1;durP2;ratioP2;P2;SDS_P1;SDS_P2;PMS_P1;PMS_P2;Temp;Humidity;BMP_temperature;BMP_pressure;BME280_temperature;BME280_humidity;BME280_pressure;Samples;Min_cycle;Max_cycle;Signal;HPM_P1;HPM_P2
2023/03/17 00:00:36;;;;;;;4.30;2.42;;;15.40;65.00;;;;;;3926948;30;20500;-66
2023/03/17 00:03:21;;;;;;;4.20;2.75;;;15.40;64.60;;;;;;3926675;30;20116;-67
2023/03/17 00:06:03;;;;;;;2.50;2.30;;;15.50;64.40;;;;;;3926447;30;20178;-67
2023/03/17 00:08:46;;;;;;;3.00;2.63;;;15.50;64.10;;;;;;3926655;30;20404;-70
2023/03/17 00:11:27;;;;;;;2.88;2.13;;;15.50;64.00;;;;;;3926709;30;20496;-70
2023/03/17 00:14:10;;;;;;;3.53;2.83;;;15.50;64.00;;;;;;3926315;30;20059;-70
2023/03/17 00:16:52;;;;;;;2.45;2.15;;;15.50;64.20;;;;;;3925498;30;20568;-70
2023/03/17 00:19:35;;;;;;;2.92;2.67;;;15.40;64.10;;;;;;3925660;30;20059;-70
2023/03/17 00:22:21;;;;;;;2.95;2.65;;;15.40;64.60;;;;;;3914072;30;20048;-70
2023/03/17 00:25:02;;;;;;;2.38;2.15;;;15.50;64.70;;;;;;3911680;30;20119;-70
2023/03/17 00:27:42;;;;;;;2.05;1.98;;;15.60;65.30;;;;;;3900863;30;20130;-68
2023/03/17 00:30:25;;;;;;;4.65;2.50;;;15.60;64.10;;;;;;3911519;30;20421;-68
2023/03/17 00:33:06;;;;;;;2.67;2.33;;;15.70;64.80;;;;;;3911631;30;20062;-68
2023/03/17 00:35:47;;;;;;;2.85;2.45;;;15.70;63.90;;;;;;3912483;30;20055;-69
2023/03/17 00:38:28;;;;;;;5.75;2.45;;;15.70;63.70;;;;;;3915446;30;20420;-68
2023/03/17 00:41:11;;;;;;;5.38;2.38;;;15.70;63.80;;;;;;3928639;30;20062;-68
2023/03/17 00:43:52;;;;;;;4.05;2.58;;;15.70;64.10;;;;;;3928904;30;20087;-68
2023/03/17 00:46:36;;;;;;;2.60;2.40;;;15.80;64.10;;;;;;3928674;30;20063;-68
2023/03/17 00:49:21;;;;;;;2.58;2.20;;;15.90;63.90;;;;;;3928717;30;20453;-68
2023/03/17 00:52:02;;;;;;;2.40;2.20;;;15.90;63.40;;;;;;3928824;30;20260;-68
2023/03/17 00:54:43;;;;;;;2.45;2.25;;;15.90;63.10;;;;;;3926668;30;20544;-68
2023/03/17 00:57:23;;;;;;;2.58;2.38;;;15.90;63.20;;;;;;3925791;30;20077;-67
2023/03/17 01:00:07;;;;;;;3.88;2.45;;;15.90;63.40;;;;;;3917615;30;20087;-67
2023/03/17 01:02:50;;;;;;;3.22;2.50;;;15.90;63.30;;;;;;3928454;30;20607;-68
2023/03/17 01:05:31;;;;;;;2.47;2.15;;;15.90;63.30;;;;;;3928424;30;20055;-68
2023/03/17 01:08:15;;;;;;;2.70;2.45;;;15.90;63.40;;;;;;3913798;30;20149;-70
2023/03/17 01:10:56;;;;;;;2.28;2.05;;;15.90;63.50;;;;;;3914086;30;20175;-68
2023/03/17 01:13:37;;;;;;;2.63;2.40;;;15.90;63.50;;;;;;3913954;30;20059;-68
2023/03/17 01:16:18;;;;;;;2.75;2.30;;;15.80;63.70;;;;;;3917504;30;20063;-68
2023/03/17 01:19:00;;;;;;;3.38;2.22;;;15.80;64.60;;;;;;3917236;30;20570;-68
2023/03/17 01:21:42;;;;;;;2.40;2.30;;;15.70;63.90;;;;;;3917392;30;20051;-70
2023/03/17 01:24:23;;;;;;;;;;;15.80;64.00;;;;;;3918183;30;20055;-68
2023/03/17 01:27:05;;;;;;;3.88;2.50;;;15.80;64.20;;;;;;3928449;30;19937;-68
2023/03/17 01:29:46;;;;;;;4.15;2.60;;;15.70;64.30;;;;;;3917426;30;20075;-68
2023/03/17 01:32:27;;;;;;;2.28;2.08;;;15.70;64.20;;;;;;3928479;30;20055;-69
2023/03/17 01:35:10;;;;;;;2.55;2.35;;;15.70;64.10;;;;;;3928576;30;20059;-66
2023/03/17 01:37:52;;;;;;;2.80;2.30;;;15.70;64.90;;;;;;3916089;30;20108;-67
2023/03/17 01:40:34;;;;;;;;;;;15.70;63.70;;;;;;3915015;30;20132;-67
2023/03/17 01:43:22;;;;;;;2.75;2.55;;;15.70;63.80;;;;;;3928171;30;20715;-67
2023/03/17 01:46:26;;;;;;;4.15;2.38;;;15.70;64.10;;;;;;3916045;30;20480;-66
2023/03/17 01:49:13;;;;;;;2.58;2.28;;;15.70;63.80;;;;;;3927104;30;20121;-67
2023/03/17 01:52:00;;;;;;;2.53;2.30;;;15.70;65.00;;;;;;3917029;30;20055;-67
2023/03/17 01:54:46;;;;;;;2.58;2.38;;;15.70;64.10;;;;;;3928073;30;20059;-65
2023/03/17 01:57:32;;;;;;;2.70;2.50;;;15.90;64.10;;;;;;3916627;30;20063;-66
2023/03/17 02:00:17;;;;;;;2.83;2.35;;;15.90;63.70;;;;;;3916835;30;20051;-67
2023/03/17 02:02:58;;;;;;;2.95;2.63;;;16.00;63.50;;;;;;3915427;30;20063;-67
2023/03/17 02:05:41;;;;;;;2.83;2.53;;;16.10;63.60;;;;;;3927563;30;20074;-67
2023/03/17 02:08:26;;;;;;;4.72;2.78;;;16.10;63.10;;;;;;3910396;30;20402;-65
2023/03/17 02:11:07;;;;;;;2.55;2.30;;;16.20;62.70;;;;;;3913046;30;20079;-67
2023/03/17 02:13:48;;;;;;;2.78;2.58;;;16.20;62.50;;;;;;3913146;30;20158;-67
2023/03/17 02:16:30;;;;;;;3.05;2.72;;;16.20;62.60;;;;;;3912808;30;20719;-67
2023/03/17 02:19:11;;;;;;;;;;;16.30;62.50;;;;;;3923438;30;20101;-67
2023/03/17 02:21:56;;;;;;;3.22;2.88;;;16.30;62.60;;;;;;3916687;30;20366;-67
2023/03/17 02:24:40;;;;;;;3.55;2.70;;;16.30;62.70;;;;;;3927303;30;20067;-67
2023/03/17 02:27:26;;;;;;;2.90;2.67;;;16.30;62.60;;;;;;3927815;30;20059;-67
2023/03/17 02:30:10;;;;;;;3.13;2.92;;;16.20;62.60;;;;;;3927819;30;20405;-67
2023/03/17 02:32:51;;;;;;;2.72;2.50;;;16.20;62.80;;;;;;3927713;30;20186;-67
2023/03/17 02:35:35;;;;;;;3.15;2.70;;;16.10;63.10;;;;;;3922298;30;20075;-67
2023/03/17 02:38:17;;;;;;;2.70;2.47;;;16.10;63.50;;;;;;3913249;30;20534;-67
2023/03/17 02:40:58;;;;;;;4.28;2.90;;;16.20;63.20;;;;;;3912845;30;20692;-67
2023/03/17 02:43:40;;;;;;;2.90;2.65;;;16.30;63.00;;;;;;3913074;30;20080;-67
2023/03/17 02:46:20;;;;;;;;;;;16.30;62.90;;;;;;3913434;30;20065;-66
2023/03/17 02:49:03;;;;;;;3.20;2.90;;;16.30;63.00;;;;;;3906993;30;19996;-67
2023/03/17 02:51:44;;;;;;;3.55;2.72;;;16.30;63.20;;;;;;3913227;30;20058;-68
2023/03/17 02:54:26;;;;;;;3.90;2.80;;;16.30;63.10;;;;;;3927512;30;20055;-69
2023/03/17 02:57:07;;;;;;;3.38;3.08;;;16.30;62.90;;;;;;3927666;30;20070;-71
2023/03/17 02:59:48;;;;;;;4.38;3.05;;;16.20;62.90;;;;;;3927228;30;20063;-69
2023/03/17 03:02:29;;;;;;;3.30;3.00;;;16.20;63.00;;;;;;3926595;30;20059;-68
2023/03/17 03:05:10;;;;;;;;;;;16.20;63.20;;;;;;3927087;30;20059;-68
2023/03/17 03:07:51;;;;;;;3.38;3.03;;;16.10;63.40;;;;;;3927223;30;19937;-67
2023/03/17 03:10:33;;;;;;;3.58;3.28;;;16.00;63.80;;;;;;3912974;30;20501;-65
2023/03/17 03:13:14;;;;;;;3.67;2.88;;;16.00;63.80;;;;;;3912620;30;20178;-64
2023/03/17 03:15:55;;;;;;;3.00;2.70;;;15.90;64.00;;;;;;3913944;30;20063;-67
2023/03/17 03:18:36;;;;;;;5.60;3.60;;;15.80;64.20;;;;;;3927120;30;20051;-67
2023/03/17 03:21:17;;;;;;;;;;;15.80;64.80;;;;;;3927653;30;20874;-67
2023/03/17 03:23:58;;;;;;;3.50;3.30;;;15.80;65.10;;;;;;3926887;30;19933;-67
2023/03/17 03:26:40;;;;;;;5.70;3.07;;;15.90;64.90;;;;;;3926237;30;20523;-67
2023/03/17 03:29:21;;;;;;;3.45;3.15;;;16.00;64.50;;;;;;3927317;30;20293;-67
2023/03/17 03:32:02;;;;;;;3.78;2.83;;;16.10;64.20;;;;;;3922043;30;20059;-67
2023/03/17 03:34:43;;;;;;;3.83;2.90;;;16.10;63.60;;;;;;3926702;30;20056;-67
2023/03/17 03:37:24;;;;;;;3.33;3.03;;;16.10;63.60;;;;;;3926757;30;20114;-66
2023/03/17 03:40:07;;;;;;;4.95;3.30;;;16.20;63.50;;;;;;3926899;30;20107;-66
2023/03/17 03:42:50;;;;;;;5.20;3.13;;;16.20;63.40;;;;;;3908309;30;20098;-67
2023/03/17 03:45:31;;;;;;;3.40;3.10;;;16.10;63.20;;;;;;3912471;30;20063;-66
2023/03/17 03:48:12;;;;;;;3.00;2.67;;;16.10;63.40;;;;;;3901448;30;20141;-67
2023/03/17 03:50:56;;;;;;;3.05;2.75;;;16.10;63.70;;;;;;3912656;30;20063;-67
2023/03/17 03:53:37;;;;;;;3.50;3.10;;;16.00;64.00;;;;;;3916020;30;20063;-67
2023/03/17 03:56:18;;;;;;;4.00;3.15;;;16.10;63.90;;;;;;3926934;30;20064;-67
2023/03/17 03:59:00;;;;;;;3.30;3.00;;;16.10;63.80;;;;;;3922671;30;20059;-67
2023/03/17 04:01:41;;;;;;;4.45;3.08;;;16.10;63.70;;;;;;3912398;30;20056;-66
2023/03/17 04:04:22;;;;;;;3.78;3.33;;;16.10;64.50;;;;;;3919408;30;20075;-67
2023/03/17 04:07:03;;;;;;;3.10;2.80;;;16.20;63.40;;;;;;3927058;30;20149;-67
2023/03/17 04:09:44;;;;;;;3.63;3.33;;;16.10;63.50;;;;;;3915559;30;20059;-67
2023/03/17 04:12:25;;;;;;;3.75;3.20;;;16.10;63.80;;;;;;3927611;30;20516;-67
2023/03/17 04:15:10;;;;;;;4.10;2.63;;;16.20;63.80;;;;;;3928215;30;20189;-66
2023/03/17 04:17:53;;;;;;;3.13;2.65;;;16.20;63.60;;;;;;3922665;30;20122;-67
2023/03/17 04:20:34;;;;;;;3.15;2.95;;;16.30;63.40;;;;;;3918022;30;20141;-66
2023/03/17 04:23:16;;;;;;;3.38;3.08;;;16.30;63.20;;;;;;3928781;30;20105;-67
2023/03/17 04:25:57;;;;;;;3.17;2.97;;;16.30;63.20;;;;;;3918474;30;20405;-66
2023/03/17 04:28:38;;;;;;;3.20;2.90;;;16.30;63.30;;;;;;3929566;30;20135;-66
2023/03/17 04:31:20;;;;;;;3.63;2.92;;;16.40;63.10;;;;;;3929504;30;20083;-66
2023/03/17 04:34:01;;;;;;;3.17;2.90;;;16.40;62.90;;;;;;3927888;30;20072;-67
2023/03/17 04:36:42;;;;;;;3.50;3.20;;;16.40;62.70;;;;;;3918199;30;20063;-67
2023/03/17 04:39:23;;;;;;;3.38;2.88;;;16.40;63.00;;;;;;3929499;30;20301;-69
2023/03/17 04:42:04;;;;;;;4.75;3.35;;;16.40;63.10;;;;;;3928722;30;20051;-69
2023/03/17 04:44:45;;;;;;;4.47;3.30;;;16.40;63.10;;;;;;3914449;30;20138;-69
2023/03/17 04:47:27;;;;;;;2.80;2.60;;;16.40;63.10;;;;;;3914712;30;20167;-69
2023/03/17 04:50:10;;;;;;;3.22;2.92;;;16.30;63.20;;;;;;3921364;30;20055;-69
2023/03/17 04:52:50;;;;;;;3.50;3.20;;;16.30;63.10;;;;;;3918024;30;20606;-69
2023/03/17 04:55:31;;;;;;;3.53;3.20;;;16.30;63.10;;;;;;3912242;30;20194;-70
2023/03/17 04:58:12;;;;;;;2.80;2.70;;;16.30;63.10;;;;;;3925161;30;20305;-69
2023/03/17 05:01:09;;;;;;;3.00;2.80;;;16.30;63.30;;;;;;3928594;30;20110;-70
2023/03/17 05:03:52;;;;;;;3.95;2.83;;;16.20;63.60;;;;;;3917738;30;20063;-70
2023/03/17 05:06:33;;;;;;;3.00;2.80;;;16.30;63.70;;;;;;3918500;30;20074;-69
2023/03/17 05:09:14;;;;;;;3.42;3.08;;;16.40;63.60;;;;;;3929263;30;20484;-70
2023/03/17 05:11:55;;;;;;;4.70;2.90;;;16.40;63.30;;;;;;3928661;30;20170;-66
2023/03/17 05:14:35;;;;;;;3.57;3.20;;;16.40;63.00;;;;;;3928904;30;20520;-66
2023/03/17 05:17:16;;;;;;;4.00;3.27;;;16.50;63.00;;;;;;3928828;30;20515;-66
2023/03/17 05:19:58;;;;;;;3.05;2.85;;;16.40;63.00;;;;;;3928540;30;20073;-66
2023/03/17 05:22:39;;;;;;;4.18;2.80;;;16.40;62.80;;;;;;3917662;30;20059;-66
2023/03/17 05:25:20;;;;;;;;;;;16.40;62.80;;;;;;3914049;30;20516;-66
2023/03/17 05:28:01;;;;;;;3.20;2.90;;;16.40;63.10;;;;;;3914351;30;19944;-67
2023/03/17 05:30:43;;;;;;;3.55;3.25;;;16.30;64.10;;;;;;3921491;30;20067;-67
2023/03/17 05:33:25;;;;;;;3.53;3.22;;;16.30;63.30;;;;;;3928312;30;20059;-67
2023/03/17 05:36:07;;;;;;;4.63;3.38;;;16.30;63.50;;;;;;3928563;30;20416;-67
2023/03/17 05:38:48;;;;;;;3.00;2.65;;;16.30;63.50;;;;;;3927890;30;20417;-67
2023/03/17 05:41:30;;;;;;;3.47;3.22;;;16.30;63.70;;;;;;3925223;30;20087;-67
2023/03/17 05:44:11;;;;;;;3.97;3.03;;;16.40;63.50;;;;;;3928488;30;20063;-67
2023/03/17 05:46:51;;;;;;;3.23;2.87;;;16.40;63.30;;;;;;3921782;30;20174;-66
2023/03/17 05:49:32;;;;;;;4.93;2.83;;;16.50;63.10;;;;;;3927698;30;20558;-67
2023/03/17 05:52:14;;;;;;;3.28;3.03;;;16.50;63.00;;;;;;3927944;30;20059;-66
2023/03/17 05:54:55;;;;;;;3.20;2.90;;;16.40;63.00;;;;;;3928121;30;20059;-67
2023/03/17 05:57:36;;;;;;;2.92;2.67;;;16.40;63.10;;;;;;3919712;30;20060;-66
2023/03/17 06:00:20;;;;;;;2.97;2.78;;;16.40;63.10;;;;;;3913144;30;20064;-67
2023/03/17 06:03:01;;;;;;;3.38;2.70;;;16.40;63.20;;;;;;3913295;30;20137;-66
2023/03/17 06:05:42;;;;;;;2.78;2.50;;;16.30;63.10;;;;;;3913053;30;20059;-67
2023/03/17 06:08:24;;;;;;;3.60;3.28;;;16.30;64.10;;;;;;3916820;30;20413;-67
2023/03/17 06:11:05;;;;;;;3.90;3.15;;;16.20;63.40;;;;;;3927495;30;20209;-66
2023/03/17 06:13:46;;;;;;;3.85;3.10;;;16.20;63.80;;;;;;3927304;30;20082;-66
2023/03/17 06:16:29;;;;;;;2.65;2.42;;;16.20;63.80;;;;;;3927726;30;20075;-66
2023/03/17 06:19:11;;;;;;;3.45;3.15;;;16.20;63.60;;;;;;3926814;30;20197;-67
2023/03/17 06:21:51;;;;;;;4.00;2.75;;;16.30;64.50;;;;;;3927584;30;20063;-66
2023/03/17 06:24:34;;;;;;;5.97;3.03;;;16.30;63.90;;;;;;3927810;30;20112;-67
2023/03/17 06:27:14;;;;;;;2.83;2.60;;;16.30;63.70;;;;;;3927839;30;20554;-66
2023/03/17 06:29:56;;;;;;;3.88;2.72;;;16.30;63.50;;;;;;3913151;30;20067;-66
2023/03/17 06:32:36;;;;;;;2.85;2.63;;;16.30;63.80;;;;;;3912906;30;20468;-66
2023/03/17 06:35:18;;;;;;;4.35;3.13;;;16.40;64.20;;;;;;3912726;30;20076;-67
2023/03/17 06:37:59;;;;;;;3.13;2.92;;;16.40;64.00;;;;;;3918065;30;20063;-67
2023/03/17 06:40:42;;;;;;;3.38;3.03;;;16.50;63.80;;;;;;3927566;30;20055;-67
2023/03/17 06:43:23;;;;;;;2.78;2.58;;;16.50;63.40;;;;;;3923709;30;20545;-67
2023/03/17 06:46:06;;;;;;;2.75;2.55;;;16.50;63.20;;;;;;3919091;30;20154;-67
2023/03/17 06:48:47;;;;;;;2.97;2.78;;;16.50;63.50;;;;;;3913460;30;20052;-67
2023/03/17 06:51:27;;;;;;;3.33;2.85;;;16.40;63.40;;;;;;3918212;30;20064;-67
2023/03/17 06:54:09;;;;;;;5.50;2.90;;;16.50;63.20;;;;;;3927279;30;20063;-66
2023/03/17 06:56:51;;;;;;;2.75;2.50;;;16.50;63.10;;;;;;3919024;30;20066;-66
2023/03/17 06:59:32;;;;;;;2.95;2.75;;;16.50;63.00;;;;;;3914567;30;20078;-66
2023/03/17 07:02:14;;;;;;;2.80;2.60;;;16.50;63.00;;;;;;3926675;30;20469;-66
2023/03/17 07:04:56;;;;;;;3.20;2.88;;;16.40;63.10;;;;;;3927004;30;20063;-67
2023/03/17 07:07:38;;;;;;;4.57;2.40;;;16.50;63.40;;;;;;3926570;30;20055;-67
2023/03/17 07:10:19;;;;;;;5.68;2.78;;;16.40;63.10;;;;;;3922403;30;20181;-67
2023/03/17 07:13:02;;;;;;;3.47;2.40;;;16.40;63.10;;;;;;3901550;30;20063;-66
2023/03/17 07:15:45;;;;;;;6.00;2.72;;;16.40;63.00;;;;;;3927126;30;20055;-65
2023/03/17 07:18:26;;;;;;;3.50;2.60;;;16.40;63.20;;;;;;3921197;30;20059;-65
2023/03/17 07:21:07;;;;;;;5.03;2.70;;;16.30;63.40;;;;;;3926992;30;20149;-65
2023/03/17 07:23:48;;;;;;;2.60;2.40;;;16.30;63.50;;;;;;3912521;30;20511;-65
2023/03/17 07:26:28;;;;;;;3.60;2.70;;;16.30;64.50;;;;;;3901747;30;20587;-65
2023/03/17 07:29:10;;;;;;;3.70;3.15;;;16.30;63.80;;;;;;3912479;30;20544;-65
2023/03/17 07:31:52;;;;;;;3.63;2.38;;;16.30;63.70;;;;;;3912475;30;20051;-64
2023/03/17 07:34:33;;;;;;;3.40;2.38;;;16.30;64.80;;;;;;3912233;30;20129;-65
2023/03/17 07:37:14;;;;;;;3.30;2.63;;;16.30;64.00;;;;;;3911827;30;20492;-65
2023/03/17 07:39:54;;;;;;;5.80;3.10;;;16.30;63.80;;;;;;3919912;30;20063;-64
2023/03/17 07:42:36;;;;;;;2.85;2.55;;;16.30;63.80;;;;;;3924878;30;20774;-64
2023/03/17 07:45:18;;;;;;;;;;;16.30;63.50;;;;;;3925205;30;20602;-64
2023/03/17 07:48:00;;;;;;;4.03;2.80;;;16.40;64.00;;;;;;3928945;30;19933;-65
2023/03/17 07:50:41;;;;;;;3.15;2.80;;;16.40;63.90;;;;;;3931049;30;20066;-65
2023/03/17 07:53:22;;;;;;;4.05;2.30;;;16.60;63.70;;;;;;3944059;30;20078;-65
2023/03/17 07:56:03;;;;;;;5.97;2.72;;;16.70;63.20;;;;;;3943776;30;20515;-65
2023/03/17 07:58:44;;;;;;;5.18;3.17;;;16.70;63.00;;;;;;3938512;30;20058;-64
2023/03/17 08:01:28;;;;;;;5.55;2.65;;;16.80;62.80;;;;;;3941020;30;20066;-65
2023/03/17 08:04:11;;;;;;;3.30;3.00;;;16.70;62.50;;;;;;3943920;30;20129;-65
2023/03/17 08:06:53;;;;;;;3.03;2.72;;;16.70;62.60;;;;;;3932713;30;20204;-65
2023/03/17 08:09:34;;;;;;;4.05;2.67;;;16.70;62.60;;;;;;3929662;30;20128;-65
2023/03/17 08:12:15;;;;;;;3.50;2.67;;;16.80;62.60;;;;;;3935673;30;20066;-65
2023/03/17 08:14:56;;;;;;;3.15;2.20;;;16.80;62.30;;;;;;3935122;30;20054;-65
2023/03/17 08:17:40;;;;;;;5.00;2.88;;;16.80;62.30;;;;;;3934311;30;20214;-67
2023/03/17 08:20:21;;;;;;;4.57;2.40;;;16.70;62.10;;;;;;3931296;30;20164;-66
2023/03/17 08:23:02;;;;;;;2.90;2.63;;;16.70;62.40;;;;;;3938653;30;20121;-67
2023/03/17 08:25:43;;;;;;;4.03;2.85;;;16.70;62.40;;;;;;3934481;30;20100;-65
2023/03/17 08:28:26;;;;;;;4.40;2.80;;;16.60;62.60;;;;;;3936975;30;20059;-66
2023/03/17 08:31:11;;;;;;;4.82;3.42;;;16.60;62.80;;;;;;3929103;30;20193;-66
2023/03/17 08:33:55;;;;;;;3.15;2.85;;;16.50;62.80;;;;;;3943496;30;20197;-65
2023/03/17 08:36:37;;;;;;;2.70;2.45;;;16.50;65.00;;;;;;3939329;30;20123;-66
2023/03/17 08:39:19;;;;;;;3.85;2.78;;;16.40;65.00;;;;;;3935902;30;20412;-66
2023/03/17 08:42:00;;;;;;;4.20;2.78;;;16.40;66.30;;;;;;3937931;30;20055;-62
2023/03/17 08:44:42;;;;;;;4.38;2.40;;;16.30;66.70;;;;;;3921494;30;20140;-63
2023/03/17 08:47:24;;;;;;;7.07;2.80;;;16.40;66.60;;;;;;3929105;30;20063;-65
2023/03/17 08:50:10;;;;;;;3.25;2.75;;;16.30;66.50;;;;;;3932124;30;20086;-66
2023/03/17 08:52:53;;;;;;;3.45;2.30;;;16.30;66.30;;;;;;3942159;30;20077;-65
2023/03/17 08:55:33;;;;;;;5.28;2.63;;;16.20;66.20;;;;;;3937806;30;20059;-65
2023/03/17 08:58:14;;;;;;;4.38;2.70;;;16.20;66.10;;;;;;3934165;30;20052;-66
2023/03/17 09:00:59;;;;;;;3.10;2.63;;;16.20;66.20;;;;;;3929636;30;20058;-66
2023/03/17 09:03:41;;;;;;;5.13;2.78;;;16.10;66.20;;;;;;3932130;30;20117;-66
2023/03/17 09:06:25;;;;;;;6.22;2.90;;;16.10;67.20;;;;;;3936345;30;20491;-66
2023/03/17 09:09:06;;;;;;;3.10;2.42;;;16.10;66.10;;;;;;3929636;30;20070;-67
2023/03/17 09:11:47;;;;;;;3.65;2.60;;;16.10;66.40;;;;;;3937486;30;20525;-66
2023/03/17 09:14:29;;;;;;;3.35;3.05;;;16.10;66.50;;;;;;3926486;30;20063;-66
2023/03/17 09:17:20;;;;;;;4.53;2.80;;;16.10;66.50;;;;;;3939140;30;20139;-67
2023/03/17 09:20:02;;;;;;;4.13;2.67;;;16.10;66.50;;;;;;3927229;30;20401;-67
2023/03/17 09:22:44;;;;;;;4.22;2.55;;;16.10;66.60;;;;;;3929433;30;20058;-66
2023/03/17 09:25:26;;;;;;;2.75;2.55;;;16.10;66.70;;;;;;3934965;30;20532;-67
2023/03/17 09:28:07;;;;;;;5.32;2.60;;;16.10;67.00;;;;;;3934524;30;20087;-67
2023/03/17 09:30:48;;;;;;;3.28;2.97;;;16.10;67.30;;;;;;3926793;30;20519;-66
2023/03/17 09:33:30;;;;;;;6.78;2.83;;;16.10;67.40;;;;;;3938148;30;20193;-67
2023/03/17 09:36:12;;;;;;;3.88;2.58;;;16.10;67.10;;;;;;3933538;30;20075;-68
2023/03/17 09:38:54;;;;;;;6.18;2.95;;;16.10;67.10;;;;;;3928539;30;20523;-69
2023/03/17 09:41:56;;;;;;;4.63;2.97;;;16.10;67.20;;;;;;3929854;30;20197;-69
2023/03/17 09:44:47;;;;;;;2.75;2.53;;;16.10;67.80;;;;;;3930620;30;20198;-67
2023/03/17 09:47:56;;;;;;;2.30;2.10;;;16.20;67.30;;;;;;3933350;30;20157;-69
2023/03/17 09:50:43;;;;;;;4.60;3.15;;;16.20;66.90;;;;;;3927737;30;20142;-69
2023/03/17 09:53:32;;;;;;;5.00;2.92;;;16.30;67.50;;;;;;3936626;30;20128;-69
2023/03/17 09:56:18;;;;;;;4.15;2.75;;;16.30;67.20;;;;;;3928674;30;20528;-69
2023/03/17 09:59:02;;;;;;;4.25;3.50;;;16.30;67.10;;;;;;3927152;30;20055;-69
2023/03/17 10:01:43;;;;;;;4.05;3.15;;;16.30;67.00;;;;;;3931176;30;20543;-69
2023/03/17 10:04:26;;;;;;;4.80;3.15;;;16.30;66.90;;;;;;3931108;30;20453;-69
2023/03/17 10:07:09;;;;;;;4.43;3.60;;;16.30;66.70;;;;;;3928861;30;20055;-69
2023/03/17 10:10:00;;;;;;;4.13;2.80;;;16.30;66.80;;;;;;3930646;30;20120;-69
2023/03/17 10:12:48;;;;;;;5.00;2.95;;;16.30;67.50;;;;;;3934036;30;20535;-69
2023/03/17 10:15:37;;;;;;;4.22;3.40;;;16.30;66.50;;;;;;3934958;30;20144;-69
2023/03/17 10:18:21;;;;;;;5.95;3.25;;;16.30;66.60;;;;;;3931882;30;20063;-69
2023/03/17 10:21:04;;;;;;;5.03;3.45;;;16.30;66.60;;;;;;3934315;30;20055;-69
2023/03/17 10:23:46;;;;;;;8.77;3.05;;;16.30;66.50;;;;;;3927802;30;20953;-69
2023/03/17 10:26:31;;;;;;;5.25;3.22;;;16.30;66.40;;;;;;3928885;30;20071;-69
2023/03/17 10:29:20;;;;;;;5.55;3.85;;;16.30;66.40;;;;;;3926186;30;20417;-69
2023/03/17 10:32:01;;;;;;;5.05;3.30;;;16.40;66.30;;;;;;3915332;30;20067;-69
2023/03/17 10:34:43;;;;;;;3.95;3.55;;;16.40;66.30;;;;;;3937523;30;20062;-69
2023/03/17 10:37:26;;;;;;;4.15;3.17;;;16.40;66.40;;;;;;3924701;30;20202;-69
2023/03/17 10:40:19;;;;;;;5.57;3.60;;;16.40;66.40;;;;;;3927799;30;20058;-69
2023/03/17 10:43:06;;;;;;;3.47;3.17;;;16.30;66.00;;;;;;3929232;30;20440;-69
2023/03/17 10:45:58;;;;;;;6.90;3.95;;;16.40;65.90;;;;;;3935291;30;20067;-67
2023/03/17 10:48:40;;;;;;;6.90;3.60;;;16.30;65.30;;;;;;3924408;30;20145;-69
2023/03/17 10:51:26;;;;;;;5.28;3.53;;;16.30;65.50;;;;;;3927222;30;20059;-68
2023/03/17 10:54:09;;;;;;;4.97;3.35;;;16.30;65.20;;;;;;3917698;30;20113;-69
2023/03/17 10:56:58;;;;;;;4.70;3.33;;;16.30;65.00;;;;;;3925981;30;20061;-70
2023/03/17 10:59:43;;;;;;;6.88;3.17;;;16.30;65.20;;;;;;3914066;30;20063;-69
2023/03/17 11:02:28;;;;;;;6.15;3.17;;;16.40;65.60;;;;;;3935592;30;20055;-69
2023/03/17 11:05:20;;;;;;;4.82;3.30;;;16.40;65.60;;;;;;3926719;30;20063;-69
2023/03/17 11:08:09;;;;;;;7.03;3.67;;;16.40;65.30;;;;;;3938343;30;20067;-70
2023/03/17 11:10:55;;;;;;;8.82;4.88;;;16.40;66.30;;;;;;3924210;30;20136;-69
2023/03/17 11:13:36;;;;;;;8.02;4.00;;;16.40;65.50;;;;;;3927476;30;20725;-69
2023/03/17 11:16:21;;;;;;;6.05;3.22;;;16.40;65.60;;;;;;3937791;30;20129;-69
2023/03/17 11:19:07;;;;;;;4.22;3.38;;;16.40;65.50;;;;;;3935682;30;20063;-69
2023/03/17 11:21:56;;;;;;;5.78;3.78;;;16.50;65.60;;;;;;3924881;30;20071;-69
2023/03/17 11:24:47;;;;;;;5.90;3.40;;;16.40;65.60;;;;;;3931967;30;21207;-70
2023/03/17 11:27:32;;;;;;;7.00;3.67;;;16.50;65.30;;;;;;3923818;30;20067;-69
2023/03/17 11:30:24;;;;;;;4.10;3.70;;;16.40;65.50;;;;;;3930324;30;20063;-70
2023/03/17 11:33:13;;;;;;;4.13;3.53;;;16.40;65.40;;;;;;3930244;30;20104;-69
2023/03/17 11:36:02;;;;;;;4.95;3.88;;;16.40;65.60;;;;;;3913408;30;20055;-70
2023/03/17 11:38:55;;;;;;;4.80;3.78;;;16.40;65.70;;;;;;3924794;30;20070;-70
2023/03/17 11:41:51;;;;;;;5.53;3.20;;;16.50;66.70;;;;;;3924169;30;20051;-69
2023/03/17 11:45:08;;;;;;;4.80;3.53;;;16.50;65.80;;;;;;3929592;30;20063;-67
2023/03/17 11:48:11;;;;;;;5.95;3.92;;;16.50;65.60;;;;;;3931879;30;20120;-69
2023/03/17 11:51:02;;;;;;;5.43;3.40;;;16.50;65.80;;;;;;3926600;30;20059;-69
2023/03/17 11:53:57;;;;;;;5.65;3.80;;;16.50;65.90;;;;;;3925682;30;20190;-70
2023/03/17 11:56:42;;;;;;;4.45;3.33;;;16.50;65.70;;;;;;3912723;30;20056;-70
2023/03/17 11:59:35;;;;;;;5.55;4.00;;;16.50;65.80;;;;;;3924742;30;20063;-70
2023/03/17 12:02:26;;;;;;;6.57;3.30;;;16.50;65.60;;;;;;3923807;30;20417;-70
2023/03/17 12:05:10;;;;;;;4.68;4.10;;;16.60;65.90;;;;;;3934424;30;20714;-70
2023/03/17 12:07:55;;;;;;;5.13;3.60;;;16.60;65.70;;;;;;3916933;30;20181;-70
2023/03/17 12:10:40;;;;;;;5.10;4.20;;;16.60;65.70;;;;;;3930995;30;20060;-70
2023/03/17 12:13:25;;;;;;;5.47;3.90;;;16.60;66.10;;;;;;3935426;30;20051;-70
2023/03/17 12:16:10;;;;;;;9.10;4.32;;;16.60;66.00;;;;;;3927194;30;20181;-70
2023/03/17 12:19:02;;;;;;;7.78;4.30;;;16.60;66.10;;;;;;3935791;30;20083;-70
2023/03/17 12:21:51;;;;;;;4.40;3.88;;;16.70;65.90;;;;;;3936889;30;20197;-70
2023/03/17 12:24:38;;;;;;;7.45;4.20;;;16.70;66.00;;;;;;3924237;30;20147;-70
2023/03/17 12:27:24;;;;;;;7.35;4.95;;;16.70;66.30;;;;;;3919298;30;20145;-70
2023/03/17 12:30:16;;;;;;;5.78;4.50;;;16.70;67.20;;;;;;3927185;30;20058;-70
2023/03/17 12:33:00;;;;;;;;;;;16.80;66.40;;;;;;3913045;30;20090;-70
2023/03/17 12:35:41;;;;;;;5.90;4.68;;;16.80;66.60;;;;;;3933218;30;19936;-69
2023/03/17 12:38:31;;;;;;;7.03;4.45;;;16.80;67.10;;;;;;3917598;30;20055;-70
2023/03/17 12:41:38;;;;;;;6.72;4.85;;;16.80;67.00;;;;;;3929215;30;20113;-70
2023/03/17 12:44:33;;;;;;;5.13;4.30;;;16.90;66.60;;;;;;3915649;30;20408;-70
2023/03/17 12:47:43;;;;;;;8.27;4.72;;;16.90;66.50;;;;;;3939756;30;20055;-69
2023/03/17 12:51:05;;;;;;;5.90;4.70;;;16.90;66.50;;;;;;3939640;30;20063;-67
2023/03/17 12:53:49;;;;;;;6.70;5.03;;;16.90;66.50;;;;;;3926331;30;20067;-70
2023/03/17 12:56:34;;;;;;;5.78;4.72;;;16.90;66.80;;;;;;3927085;30;20177;-69
2023/03/17 12:59:18;;;;;;;6.38;5.20;;;17.00;66.20;;;;;;3929131;30;20405;-69
2023/03/17 13:02:15;;;;;;;6.93;4.72;;;16.90;66.20;;;;;;3926307;30;20619;-69
2023/03/17 13:04:59;;;;;;;6.90;4.95;;;17.00;66.00;;;;;;3929586;30;20079;-69
2023/03/17 13:07:48;;;;;;;8.13;4.80;;;17.00;66.40;;;;;;3940924;30;20070;-69
2023/03/17 13:10:41;;;;;;;6.15;5.07;;;17.00;66.30;;;;;;3928563;30;20063;-68
2023/03/17 13:13:36;;;;;;;9.70;5.25;;;17.00;66.10;;;;;;3932538;30;20063;-68
2023/03/17 13:16:30;;;;;;;6.88;4.78;;;17.00;66.10;;;;;;3931765;30;20063;-69
2023/03/17 13:19:18;;;;;;;5.70;5.00;;;17.00;66.10;;;;;;3932709;30;20123;-69
2023/03/17 13:22:32;;;;;;;7.30;5.32;;;17.00;66.20;;;;;;3938253;30;20054;-69
2023/03/17 13:25:26;;;;;;;8.70;5.07;;;17.00;66.20;;;;;;3925782;30;20070;-70
2023/03/17 13:28:24;;;;;;;7.40;5.40;;;17.00;67.50;;;;;;3920448;30;20417;-69
2023/03/17 13:31:11;;;;;;;6.35;5.18;;;17.00;66.60;;;;;;3935594;30;22818;-70
2023/03/17 13:33:55;;;;;;;7.07;5.25;;;17.00;66.70;;;;;;3931488;30;20094;-70
2023/03/17 13:36:43;;;;;;;6.13;5.53;;;17.10;66.80;;;;;;3933171;30;20062;-65
2023/03/17 13:40:16;;;;;;;7.32;5.10;;;17.00;66.20;;;;;;3935783;30;20054;-70
2023/03/17 13:43:09;;;;;;;7.68;5.70;;;17.10;66.00;;;;;;3872056;30;20553;-70
2023/03/17 13:45:55;;;;;;;6.35;5.78;;;17.10;66.50;;;;;;3928836;30;20139;-71
2023/03/17 13:48:37;;;;;;;7.30;5.43;;;17.10;66.50;;;;;;3938311;30;20137;-71
2023/03/17 13:51:21;;;;;;;10.63;5.82;;;17.10;66.10;;;;;;3939093;30;20063;-69
2023/03/17 13:54:20;;;;;;;8.85;5.88;;;17.00;66.00;;;;;;3938320;30;20147;-70
2023/03/17 13:57:23;;;;;;;6.38;5.63;;;17.10;66.30;;;;;;3928628;30;20083;-71
2023/03/17 14:00:23;;;;;;;9.05;5.60;;;17.00;66.20;;;;;;3933555;30;20059;-71
2023/03/17 14:03:12;;;;;;;9.05;5.90;;;17.00;66.40;;;;;;3926778;30;20418;-69
2023/03/17 14:05:53;;;;;;;7.22;5.30;;;17.00;66.50;;;;;;3932265;30;20515;-70
2023/03/17 14:08:35;;;;;;;7.30;5.85;;;17.00;66.50;;;;;;3928909;30;20074;-69
2023/03/17 14:11:32;;;;;;;9.75;6.07;;;17.10;67.00;;;;;;3931311;30;20512;-69
2023/03/17 14:14:24;;;;;;;6.15;5.55;;;17.00;68.50;;;;;;3928394;30;20504;-65
2023/03/17 14:17:16;;;;;;;7.38;5.97;;;17.10;71.90;;;;;;3929112;30;20066;-67